createdAt,value
2018-07-25T00:00:34.309Z,23.40
2018-07-25T00:03:02.748Z,23.40
2018-07-25T00:05:31.300Z,23.30
2018-07-25T00:07:59.695Z,23.40
2018-07-25T00:10:33.373Z,23.30
2018-07-25T00:13:01.889Z,23.30
2018-07-25T00:15:30.331Z,23.20
2018-07-25T00:17:58.759Z,23.20
2018-07-25T00:20:27.211Z,23.20
2018-07-25T00:22:55.657Z,23.10
2018-07-25T00:27:52.233Z,23.00
2018-07-25T00:30:20.766Z,23.00
2018-07-25T00:32:49.205Z,22.90
2018-07-25T00:35:17.614Z,23.00
2018-07-25T00:37:46.163Z,22.90
2018-07-25T00:40:14.610Z,23.00
2018-07-25T00:42:43.013Z,22.90
2018-07-25T00:45:11.766Z,22.90
2018-07-25T00:47:40.397Z,22.90
2018-07-25T00:50:09.186Z,22.80
2018-07-25T00:52:37.633Z,22.80
2018-07-25T00:55:06.151Z,22.80
2018-07-25T00:57:34.603Z,22.70
2018-07-25T01:00:03.024Z,22.70
2018-07-25T01:02:31.473Z,22.70
2018-07-25T01:05:00.189Z,22.60
2018-07-25T01:07:28.602Z,22.60
2018-07-25T01:09:56.984Z,22.50
2018-07-25T01:12:25.409Z,22.50
2018-07-25T01:14:53.796Z,22.50
2018-07-25T01:17:22.487Z,22.40
2018-07-25T01:19:50.985Z,22.50
2018-07-25T01:22:19.644Z,22.50
2018-07-25T01:24:48.048Z,22.40
2018-07-25T01:27:16.463Z,22.40
2018-07-25T01:29:44.872Z,22.40
2018-07-25T01:32:13.281Z,22.30
2018-07-25T01:34:41.668Z,22.20
2018-07-25T01:37:10.162Z,22.20
2018-07-25T01:39:38.597Z,22.10
2018-07-25T01:42:07.000Z,22.10
2018-07-25T01:44:35.408Z,22.00
2018-07-25T01:47:03.924Z,22.00
2018-07-25T01:49:32.368Z,21.90
2018-07-25T01:52:00.788Z,21.90
2018-07-25T01:54:29.211Z,21.90
2018-07-25T01:56:57.612Z,21.90
2018-07-25T01:59:28.100Z,21.90
2018-07-25T02:01:57.588Z,21.90
2018-07-25T02:04:26.369Z,22.00
2018-07-25T02:06:54.788Z,21.90
2018-07-25T02:11:51.302Z,21.90
2018-07-25T02:14:20.081Z,21.90
2018-07-25T02:16:48.485Z,21.90
2018-07-25T02:19:16.915Z,21.90
2018-07-25T02:21:45.350Z,21.90
2018-07-25T02:24:13.736Z,21.90
2018-07-25T02:26:42.157Z,21.90
2018-07-25T02:29:10.567Z,21.90
2018-07-25T02:31:39.092Z,21.90
2018-07-25T02:34:12.831Z,21.90
2018-07-25T02:36:41.257Z,21.90
2018-07-25T02:39:11.740Z,21.80
2018-07-25T02:41:40.338Z,21.70
2018-07-25T02:44:08.794Z,21.60
2018-07-25T02:46:37.190Z,21.60
2018-07-25T02:49:05.765Z,21.60
2018-07-25T02:51:34.692Z,21.60
2018-07-25T02:54:03.549Z,21.50
2018-07-25T02:56:32.448Z,21.50
2018-07-25T02:59:01.131Z,21.40
2018-07-25T03:01:29.524Z,21.50
2018-07-25T03:03:57.971Z,21.50
2018-07-25T03:06:26.404Z,21.50
2018-07-25T03:08:54.859Z,21.40
2018-07-25T03:11:23.220Z,21.40
2018-07-25T03:13:51.644Z,21.40
2018-07-25T03:16:20.068Z,21.40
2018-07-25T03:18:48.474Z,21.30
2018-07-25T03:21:16.913Z,21.20
2018-07-25T03:23:45.427Z,21.20
2018-07-25T03:26:13.844Z,21.20
2018-07-25T03:28:42.248Z,21.10
2018-07-25T03:31:11.598Z,21.00
2018-07-25T03:33:39.992Z,21.00
2018-07-25T03:38:36.461Z,20.80
2018-07-25T03:41:04.924Z,20.70
2018-07-25T03:43:33.319Z,20.60
2018-07-25T03:46:01.709Z,20.50
2018-07-25T03:48:30.124Z,20.40
2018-07-25T03:50:58.519Z,20.40
2018-07-25T03:53:26.936Z,20.40
2018-07-25T03:55:55.349Z,20.50
2018-07-25T03:58:23.816Z,20.50
2018-07-25T04:00:52.236Z,20.30
2018-07-25T04:03:20.633Z,20.00
2018-07-25T04:05:49.044Z,19.90
2018-07-25T04:08:17.527Z,20.00
2018-07-25T04:10:48.470Z,19.90
2018-07-25T04:13:17.689Z,19.90
2018-07-25T04:15:46.451Z,19.90
2018-07-25T04:18:15.052Z,20.00
2018-07-25T04:20:43.519Z,20.00
2018-07-25T04:23:12.119Z,19.90
2018-07-25T04:25:40.532Z,19.90
2018-07-25T04:28:08.943Z,20.00
2018-07-25T04:30:37.361Z,20.00
2018-07-25T04:33:05.780Z,20.10
2018-07-25T04:35:34.187Z,20.20
2018-07-25T04:38:02.963Z,20.20
2018-07-25T04:40:31.377Z,20.30
2018-07-25T04:42:59.809Z,20.40
2018-07-25T04:45:28.231Z,20.50
2018-07-25T04:47:56.644Z,20.60
2018-07-25T04:50:25.095Z,20.90
2018-07-25T04:52:53.520Z,21.10
2018-07-25T04:55:21.987Z,21.40
2018-07-25T04:57:50.384Z,22.00
2018-07-25T05:00:18.808Z,22.20
2018-07-25T05:02:47.215Z,22.40
2018-07-25T05:05:15.643Z,22.60
2018-07-25T05:07:44.072Z,22.60
2018-07-25T05:10:12.477Z,22.50
2018-07-25T05:12:40.969Z,22.40
2018-07-25T05:15:09.443Z,22.80
2018-07-25T05:17:37.856Z,23.70
2018-07-25T05:20:06.305Z,24.60
2018-07-25T05:22:34.836Z,25.10
2018-07-25T05:25:03.312Z,25.70
2018-07-25T05:27:31.733Z,26.30
2018-07-25T05:30:00.168Z,26.90
2018-07-25T05:32:28.728Z,27.20
2018-07-25T05:34:57.142Z,27.40
2018-07-25T05:37:25.595Z,27.60
2018-07-25T05:39:53.995Z,27.60
2018-07-25T05:42:22.432Z,27.90
2018-07-25T05:44:50.868Z,27.50
2018-07-25T05:47:19.292Z,27.20
2018-07-25T05:49:47.713Z,26.60
2018-07-25T05:52:16.145Z,25.90
2018-07-25T05:54:44.554Z,25.20
2018-07-25T05:57:13.036Z,25.00
2018-07-25T05:59:41.506Z,24.80
2018-07-25T06:02:10.248Z,24.40
2018-07-25T06:04:38.685Z,24.20
2018-07-25T06:07:07.101Z,24.10
2018-07-25T06:09:35.537Z,24.00
2018-07-25T06:12:04.177Z,23.90
2018-07-25T06:14:32.560Z,24.00
2018-07-25T06:17:00.957Z,24.20
2018-07-25T06:19:29.396Z,24.40
2018-07-25T06:24:26.044Z,24.30
2018-07-25T06:29:22.552Z,24.40
2018-07-25T06:31:51.162Z,24.40
2018-07-25T06:34:19.622Z,24.40
2018-07-25T06:36:48.020Z,24.40
2018-07-25T06:39:16.446Z,24.50
2018-07-25T06:41:44.832Z,24.60
2018-07-25T06:44:13.312Z,24.70
2018-07-25T06:46:41.704Z,24.70
2018-07-25T06:49:10.137Z,24.70
2018-07-25T06:51:38.704Z,24.80
2018-07-25T06:56:35.253Z,25.00
2018-07-25T06:59:03.947Z,25.00
2018-07-25T07:01:32.376Z,25.00
2018-07-25T07:04:00.804Z,25.00
2018-07-25T07:08:57.395Z,25.20
2018-07-25T07:11:25.832Z,25.20
2018-07-25T07:13:54.257Z,25.30
2018-07-25T07:16:22.652Z,25.30
2018-07-25T07:18:51.103Z,25.40
2018-07-25T07:21:19.501Z,25.50
2018-07-25T07:23:47.919Z,25.60
2018-07-25T07:26:16.679Z,25.60
2018-07-25T07:28:45.096Z,25.70
2018-07-25T07:31:13.573Z,25.80
2018-07-25T07:33:42.089Z,25.80
2018-07-25T07:36:10.566Z,25.90
2018-07-25T07:38:39.110Z,26.00
2018-07-25T07:41:07.848Z,26.00
2018-07-25T07:43:36.298Z,26.10
2018-07-25T07:46:04.752Z,26.10
2018-07-25T07:48:33.219Z,26.30
2018-07-25T07:51:01.658Z,26.30
2018-07-25T07:53:30.147Z,26.50
2018-07-25T07:55:58.553Z,26.50
2018-07-25T07:58:26.980Z,26.60
2018-07-25T08:00:55.469Z,26.70
2018-07-25T08:03:25.387Z,27.20
2018-07-25T08:05:53.813Z,28.00
2018-07-25T08:08:22.220Z,28.10
2018-07-25T08:10:50.773Z,28.20
2018-07-25T08:13:19.256Z,27.90
2018-07-25T08:15:47.711Z,27.80
2018-07-25T08:18:16.144Z,27.70
2018-07-25T08:23:12.744Z,27.60
2018-07-25T08:25:41.247Z,27.70
2018-07-25T08:28:09.705Z,27.80
2018-07-25T08:30:38.105Z,27.70
2018-07-25T08:33:06.549Z,27.70
2018-07-25T08:35:34.954Z,27.80
2018-07-25T08:38:03.448Z,28.00
2018-07-25T08:40:31.900Z,28.10
2018-07-25T08:43:00.384Z,28.20
2018-07-25T08:45:28.815Z,28.30
2018-07-25T08:50:25.356Z,28.60
2018-07-25T08:52:53.794Z,28.70
2018-07-25T08:55:22.204Z,29.00
2018-07-25T08:57:51.032Z,29.20
2018-07-25T09:00:19.551Z,29.30
2018-07-25T09:02:48.047Z,29.30
2018-07-25T09:05:16.592Z,29.50
2018-07-25T09:07:45.127Z,29.50
2018-07-25T09:12:41.698Z,29.60
2018-07-25T09:15:10.067Z,29.80
2018-07-25T09:17:39.161Z,29.70
2018-07-25T09:20:07.710Z,29.80
2018-07-25T09:25:05.639Z,30.30
2018-07-25T09:27:34.081Z,30.20
2018-07-25T09:30:02.505Z,30.70
2018-07-25T09:32:30.908Z,31.40
2018-07-25T09:34:59.315Z,32.60
2018-07-25T09:37:27.721Z,34.00
2018-07-25T09:39:56.164Z,35.10
2018-07-25T09:42:24.564Z,35.30
2018-07-25T09:44:52.992Z,35.70
2018-07-25T09:47:21.541Z,35.40
2018-07-25T09:49:49.956Z,35.60
2018-07-25T09:52:18.380Z,36.10
2018-07-25T09:54:46.853Z,36.10
2018-07-25T09:57:15.320Z,36.10
2018-07-25T09:59:43.722Z,36.60
2018-07-25T10:02:12.186Z,37.30
2018-07-25T10:04:40.653Z,38.10
2018-07-25T10:07:09.077Z,38.30
2018-07-25T10:09:37.625Z,38.50
2018-07-25T10:12:06.279Z,38.30
2018-07-25T10:14:34.709Z,38.50
2018-07-25T10:17:03.180Z,37.70
2018-07-25T10:19:31.655Z,37.70
2018-07-25T10:22:00.090Z,38.40
2018-07-25T10:24:28.613Z,38.90
2018-07-25T10:26:57.020Z,39.30
2018-07-25T10:29:25.540Z,39.50
2018-07-25T10:31:53.972Z,38.40
2018-07-25T10:34:22.398Z,38.40
2018-07-25T10:36:50.845Z,38.80
2018-07-25T10:39:19.268Z,39.20
2018-07-25T10:41:47.698Z,39.60
2018-07-25T10:44:16.124Z,40.00
2018-07-25T10:46:44.558Z,39.80
2018-07-25T10:49:12.979Z,39.90
2018-07-25T10:51:41.428Z,39.70
2018-07-25T10:54:10.036Z,39.80
2018-07-25T10:56:38.479Z,39.60
2018-07-25T10:59:07.126Z,40.20
2018-07-25T11:01:35.648Z,40.00
2018-07-25T11:04:04.164Z,40.30
2018-07-25T11:06:32.545Z,40.40
2018-07-25T11:09:00.960Z,40.40
2018-07-25T11:13:59.954Z,41.00
2018-07-25T11:16:28.487Z,40.50
2018-07-25T11:18:56.784Z,40.70
2018-07-25T11:21:25.288Z,40.40
2018-07-25T11:23:53.726Z,40.50
2018-07-25T11:26:23.749Z,39.80
2018-07-25T11:28:52.137Z,40.30
2018-07-25T11:31:20.537Z,40.60
2018-07-25T11:33:48.938Z,40.20
2018-07-25T11:36:17.393Z,40.30
2018-07-25T11:38:45.798Z,40.50
2018-07-25T11:41:14.260Z,40.80
2018-07-25T11:43:42.728Z,41.10
2018-07-25T11:46:11.129Z,40.90
2018-07-25T11:48:39.536Z,40.80
2018-07-25T11:51:08.049Z,41.10
2018-07-25T11:53:36.449Z,40.50
2018-07-25T11:56:04.956Z,40.30
2018-07-25T11:58:33.453Z,40.20
2018-07-25T12:01:02.020Z,40.60
2018-07-25T12:03:30.409Z,40.70
2018-07-25T12:05:58.836Z,40.80
2018-07-25T12:08:27.298Z,40.70
2018-07-25T12:10:55.697Z,40.00
2018-07-25T12:13:24.156Z,40.30
2018-07-25T12:15:52.574Z,40.70
2018-07-25T12:18:21.021Z,40.20
2018-07-25T12:20:49.447Z,39.60
2018-07-25T12:23:17.876Z,39.60
2018-07-25T12:25:46.284Z,40.00
2018-07-25T12:28:14.709Z,40.30
2018-07-25T12:30:43.128Z,38.90
2018-07-25T12:33:11.536Z,38.20
2018-07-25T12:35:39.958Z,38.40
2018-07-25T12:38:08.427Z,39.20
2018-07-25T12:40:36.893Z,39.90
2018-07-25T12:43:05.393Z,40.20
2018-07-25T12:45:33.822Z,40.10
2018-07-25T12:48:02.408Z,40.40
2018-07-25T12:50:30.844Z,40.40
2018-07-25T12:52:59.344Z,40.20
2018-07-25T12:55:27.953Z,40.00
2018-07-25T12:57:56.396Z,40.30
2018-07-25T13:00:24.820Z,40.00
2018-07-25T13:02:53.293Z,40.10
2018-07-25T13:05:21.669Z,40.00
2018-07-25T13:07:50.109Z,40.00
2018-07-25T13:10:18.561Z,39.80
2018-07-25T13:12:46.968Z,39.50
2018-07-25T13:15:15.445Z,39.00
2018-07-25T13:17:43.876Z,39.00
2018-07-25T13:20:13.187Z,39.10
2018-07-25T13:22:41.718Z,39.30
2018-07-25T13:25:10.135Z,39.10
2018-07-25T13:27:38.633Z,39.00
2018-07-25T13:30:07.684Z,38.80
2018-07-25T13:32:36.127Z,38.70
2018-07-25T13:35:04.792Z,38.80
2018-07-25T13:37:33.217Z,38.50
2018-07-25T13:40:01.652Z,37.50
2018-07-25T13:42:30.185Z,36.70
2018-07-25T13:44:58.641Z,36.30
2018-07-25T13:47:27.082Z,37.00
2018-07-25T13:52:23.654Z,37.90
2018-07-25T13:54:52.174Z,38.10
2018-07-25T13:57:20.600Z,38.00
2018-07-25T13:59:49.059Z,37.30
2018-07-25T14:02:17.468Z,37.70
2018-07-25T14:04:45.896Z,38.00
2018-07-25T14:07:14.328Z,37.90
2018-07-25T14:09:42.840Z,37.40
2018-07-25T14:12:11.334Z,37.30
2018-07-25T14:14:39.745Z,37.60
2018-07-25T14:17:08.204Z,37.20
2018-07-25T14:19:36.668Z,37.50
2018-07-25T14:22:05.138Z,37.30
2018-07-25T14:24:33.806Z,37.70
2018-07-25T14:27:02.242Z,37.70
2018-07-25T14:29:30.659Z,37.30
2018-07-25T14:31:59.050Z,37.70
2018-07-25T14:34:27.477Z,38.10
2018-07-25T14:36:55.937Z,38.20
2018-07-25T14:39:24.493Z,38.10
2018-07-25T14:41:53.105Z,37.50
2018-07-25T14:44:21.564Z,36.90
2018-07-25T14:46:50.081Z,36.80
2018-07-25T14:49:18.466Z,36.10
2018-07-25T14:51:46.897Z,34.80
2018-07-25T14:54:15.353Z,32.20
2018-07-25T14:59:12.158Z,28.20
2018-07-25T15:01:40.682Z,27.50
2018-07-25T15:06:37.484Z,28.00
2018-07-25T15:09:08.238Z,28.00
2018-07-25T15:11:36.707Z,27.80
2018-07-25T15:14:05.504Z,27.80
2018-07-25T15:16:34.080Z,27.90
2018-07-25T15:19:02.545Z,27.70
2018-07-25T15:21:31.018Z,27.50
2018-07-25T15:24:02.805Z,27.50
2018-07-25T15:26:31.249Z,27.60
2018-07-25T15:29:00.524Z,27.80
2018-07-25T15:31:29.000Z,28.00
2018-07-25T15:33:57.518Z,28.30
2018-07-25T15:36:42.856Z,28.50
2018-07-25T15:39:19.621Z,29.00
2018-07-25T15:44:17.875Z,29.70
2018-07-25T15:46:46.365Z,29.80
2018-07-25T15:49:14.789Z,29.80
2018-07-25T15:51:43.265Z,29.70
2018-07-25T15:54:11.685Z,29.80
2018-07-25T15:56:40.949Z,30.00
2018-07-25T15:59:09.677Z,30.10
2018-07-25T16:01:38.160Z,30.20
2018-07-25T16:04:06.624Z,30.20
2018-07-25T16:06:35.229Z,30.20
2018-07-25T16:09:06.196Z,30.20
2018-07-25T16:14:03.475Z,30.10
2018-07-25T16:16:31.908Z,30.20
2018-07-25T16:19:00.505Z,30.50
2018-07-25T16:21:28.969Z,30.70
2018-07-25T16:23:57.507Z,30.90
2018-07-25T16:26:25.936Z,30.90
2018-07-25T16:28:54.379Z,30.80
2018-07-25T16:31:22.935Z,30.70
2018-07-25T16:33:51.368Z,30.80
2018-07-25T16:36:19.804Z,30.80
2018-07-25T16:38:48.473Z,30.90
2018-07-25T16:41:16.935Z,31.00
2018-07-25T16:43:45.377Z,31.00
2018-07-25T16:46:13.808Z,31.20
2018-07-25T16:48:42.272Z,31.00
2018-07-25T16:51:10.739Z,31.00
2018-07-25T16:53:39.129Z,30.90
2018-07-25T16:56:07.652Z,30.80
2018-07-25T16:58:36.401Z,30.70
2018-07-25T17:01:04.865Z,30.60
2018-07-25T17:03:33.313Z,30.50
2018-07-25T17:06:01.835Z,30.50
2018-07-25T17:10:58.570Z,30.50
2018-07-25T17:13:27.743Z,30.50
2018-07-25T17:15:56.268Z,30.70
2018-07-25T17:18:25.617Z,30.90
2018-07-25T17:20:54.107Z,31.20
2018-07-25T17:23:22.566Z,31.40
2018-07-25T17:25:51.280Z,31.50
2018-07-25T17:28:19.703Z,31.50
2018-07-25T17:30:48.111Z,31.40
2018-07-25T17:33:17.454Z,31.30
2018-07-25T17:35:46.072Z,31.30
2018-07-25T17:38:14.580Z,31.30
2018-07-25T17:40:43.199Z,31.30
2018-07-25T17:43:11.640Z,31.30
2018-07-25T17:45:40.193Z,31.20
2018-07-25T17:48:08.651Z,31.20
2018-07-25T17:50:37.157Z,31.20
2018-07-25T17:53:05.856Z,31.10
2018-07-25T17:55:34.428Z,31.00
2018-07-25T17:58:03.070Z,30.90
2018-07-25T18:00:31.620Z,30.80
2018-07-25T18:03:00.087Z,30.70
2018-07-25T18:05:28.537Z,30.60
2018-07-25T18:07:57.041Z,30.50
2018-07-25T18:10:25.497Z,30.40
2018-07-25T18:12:59.270Z,30.20
2018-07-25T18:15:27.700Z,30.10
2018-07-25T18:17:56.232Z,30.00
2018-07-25T18:20:24.699Z,29.80
2018-07-25T18:22:53.169Z,29.70
2018-07-25T18:25:21.601Z,29.60
2018-07-25T18:27:50.060Z,29.50
2018-07-25T18:30:18.748Z,29.40
2018-07-25T18:32:47.272Z,29.30
2018-07-25T18:35:15.746Z,29.20
2018-07-25T18:37:44.295Z,29.10
2018-07-25T18:40:12.872Z,29.10
2018-07-25T18:42:41.626Z,29.10
2018-07-25T18:45:10.515Z,28.90
2018-07-25T18:47:39.411Z,28.80
2018-07-25T18:50:09.321Z,28.70
2018-07-25T18:52:38.208Z,28.70
2018-07-25T18:55:06.797Z,28.70
2018-07-25T18:57:35.513Z,28.70
2018-07-25T19:00:04.861Z,28.70
2018-07-25T19:02:33.881Z,28.70
2018-07-25T19:05:02.358Z,28.60
2018-07-25T19:07:30.951Z,28.60
2018-07-25T19:09:59.721Z,28.60
2018-07-25T19:12:28.172Z,28.60
2018-07-25T19:15:01.892Z,28.50
2018-07-25T19:17:30.342Z,28.50
2018-07-25T19:22:27.280Z,28.40
2018-07-25T19:24:56.132Z,28.30
2018-07-25T19:27:24.619Z,28.30
2018-07-25T19:29:53.401Z,28.20
2018-07-25T19:32:22.033Z,28.10
2018-07-25T19:34:51.061Z,28.00
2018-07-25T19:37:19.873Z,27.90
2018-07-25T19:39:48.653Z,27.80
2018-07-25T19:42:17.210Z,27.70
2018-07-25T19:47:14.072Z,27.40
2018-07-25T19:52:11.041Z,27.10
2018-07-25T19:54:39.591Z,26.90
2018-07-25T19:57:08.328Z,26.80
2018-07-25T19:59:37.112Z,26.80
2018-07-25T20:02:05.920Z,26.70
2018-07-25T20:04:34.684Z,26.70
2018-07-25T20:07:03.729Z,26.60
2018-07-25T20:09:32.564Z,26.50
2018-07-25T20:12:01.300Z,26.40
2018-07-25T20:14:35.130Z,26.30
2018-07-25T20:17:03.629Z,26.30
2018-07-25T20:19:32.090Z,26.20
2018-07-25T20:22:00.905Z,26.10
2018-07-25T20:24:29.692Z,26.00
2018-07-25T20:26:58.487Z,26.00
2018-07-25T20:29:27.369Z,25.90
2018-07-25T20:31:56.109Z,25.90
2018-07-25T20:34:24.841Z,25.80
2018-07-25T20:36:53.354Z,25.80
2018-07-25T20:39:22.034Z,25.70
2018-07-25T20:41:50.843Z,25.70
2018-07-25T20:44:20.167Z,25.60
2018-07-25T20:46:49.087Z,25.60
2018-07-25T20:49:17.572Z,25.50
2018-07-25T20:51:46.369Z,25.40
2018-07-25T20:56:43.529Z,25.30
2018-07-25T20:59:12.306Z,25.20
2018-07-25T21:01:40.933Z,25.20
2018-07-25T21:04:09.520Z,25.10
2018-07-25T21:09:07.821Z,25.00
2018-07-25T21:11:36.335Z,25.00
2018-07-25T21:14:05.087Z,24.90
2018-07-25T21:16:33.592Z,24.90
2018-07-25T21:19:01.992Z,24.80
2018-07-25T21:21:30.464Z,24.80
2018-07-25T21:23:59.054Z,24.80
2018-07-25T21:26:27.456Z,24.80
2018-07-25T21:28:55.891Z,24.80
2018-07-25T21:31:24.520Z,24.70
2018-07-25T21:33:52.944Z,24.50
2018-07-25T21:36:21.471Z,24.40
2018-07-25T21:38:50.037Z,24.40
2018-07-25T21:41:18.453Z,24.30
2018-07-25T21:43:46.836Z,24.30
2018-07-25T21:46:15.249Z,24.20
2018-07-25T21:48:43.673Z,24.20
2018-07-25T21:51:12.112Z,24.10
2018-07-25T21:53:40.601Z,24.10
2018-07-25T21:56:09.163Z,24.00
2018-07-25T21:58:37.687Z,23.90
2018-07-25T22:01:10.307Z,23.90
2018-07-25T22:03:39.208Z,23.90
2018-07-25T22:08:35.822Z,24.10
2018-07-25T22:11:04.349Z,24.20
2018-07-25T22:13:33.062Z,24.20
2018-07-25T22:16:01.756Z,24.20
2018-07-25T22:18:30.260Z,24.20
2018-07-25T22:20:58.660Z,24.20
2018-07-25T22:23:27.168Z,24.20
2018-07-25T22:25:55.569Z,24.10
2018-07-25T22:28:23.965Z,24.10
2018-07-25T22:30:52.620Z,24.00
2018-07-25T22:33:21.023Z,23.90
2018-07-25T22:35:49.416Z,23.90
2018-07-25T22:38:18.008Z,23.80
2018-07-25T22:40:46.549Z,23.80
2018-07-25T22:43:15.037Z,23.90
2018-07-25T22:45:43.477Z,24.00
2018-07-25T22:48:11.913Z,23.90
2018-07-25T22:50:40.360Z,24.00
2018-07-25T22:53:08.748Z,24.00
2018-07-25T22:55:37.458Z,23.90
2018-07-25T22:58:06.182Z,23.80
2018-07-25T23:00:34.605Z,23.50
2018-07-25T23:03:03.011Z,23.40
2018-07-25T23:05:31.616Z,23.20
2018-07-25T23:08:00.029Z,23.20
2018-07-25T23:10:28.434Z,23.10
2018-07-25T23:12:56.981Z,23.00
2018-07-25T23:15:25.441Z,22.90
2018-07-25T23:17:53.832Z,22.70
2018-07-25T23:20:22.225Z,22.40
2018-07-25T23:22:55.697Z,22.30
2018-07-25T23:25:24.643Z,22.30
2018-07-25T23:27:54.348Z,22.20
2018-07-25T23:30:22.865Z,22.20
2018-07-25T23:32:51.699Z,22.20
2018-07-25T23:35:20.795Z,22.20
2018-07-25T23:37:49.908Z,22.20
2018-07-25T23:40:18.692Z,22.20
2018-07-25T23:42:47.648Z,22.20
2018-07-25T23:45:16.060Z,22.30
2018-07-25T23:47:44.447Z,22.30
2018-07-25T23:50:12.995Z,22.20
2018-07-25T23:52:41.451Z,22.10
2018-07-25T23:55:10.202Z,22.00
2018-07-25T23:57:38.641Z,21.90
